Time;durP1;ratioP1;P1;durP2;ratioP2;P2;SDS_P1;SDS_P2;PMS_P1;PMS_P2;Temp;Humidity;BMP_temperature;BMP_pressure;BME280_temperature;BME280_humidity;BME280_pressure;Samples;Min_cycle;Max_cycle;Signal;HPM_P1;HPM_P2
2022/02/15 00:00:31;;;;;;;4.33;3.93;;;10.60;97.40;;;;;;5052008;28;20566;-76
2022/02/15 00:02:57;;;;;;;6.93;4.23;;;10.60;97.30;;;;;;5051495;28;20934;-72
2022/02/15 00:05:23;;;;;;;9.50;3.90;;;10.60;97.40;;;;;;5051140;28;20409;-72
2022/02/15 00:07:49;;;;;;;7.53;4.10;;;10.70;97.30;;;;;;5049832;28;20437;-72
2022/02/15 00:10:15;;;;;;;5.60;4.80;;;10.60;97.40;;;;;;5051752;28;20432;-72
2022/02/15 00:12:41;;;;;;;4.70;4.00;;;10.50;97.70;;;;;;5051490;28;20423;-72
2022/02/15 00:15:08;;;;;;;4.50;4.10;;;10.50;97.60;;;;;;5051090;28;20420;-72
2022/02/15 00:17:35;;;;;;;4.30;3.90;;;10.60;97.70;;;;;;5051686;28;20416;-76
2022/02/15 00:20:02;;;;;;;6.40;4.40;;;10.50;97.70;;;;;;5051196;28;20968;-72
2022/02/15 00:22:27;;;;;;;6.57;4.17;;;10.50;97.70;;;;;;5052069;28;20431;-72
2022/02/15 00:24:53;;;;;;;4.30;3.90;;;10.40;98.40;;;;;;5049994;28;20667;-72
2022/02/15 00:27:19;;;;;;;5.50;4.50;;;10.50;98.10;;;;;;5052290;28;20172;-72
2022/02/15 00:29:44;;;;;;;4.57;4.17;;;10.60;98.00;;;;;;5051191;28;20264;-72
2022/02/15 00:32:10;;;;;;;4.60;4.30;;;10.60;97.80;;;;;;5051980;28;20175;-72
2022/02/15 00:34:36;;;;;;;4.53;3.37;;;10.70;97.80;;;;;;5050014;28;20259;-74
2022/02/15 00:37:02;;;;;;;5.10;3.80;;;10.80;98.10;;;;;;5051933;28;20614;-72
2022/02/15 00:39:28;;;;;;;6.57;3.90;;;10.80;97.80;;;;;;5051909;28;20169;-72
2022/02/15 00:41:54;;;;;;;5.80;4.53;;;10.80;97.60;;;;;;5052579;28;20503;-72
2022/02/15 00:44:20;;;;;;;5.00;3.80;;;10.80;97.70;;;;;;5055671;28;20414;-72
2022/02/15 00:46:46;;;;;;;4.47;4.07;;;10.80;97.70;;;;;;5054792;28;20188;-73
2022/02/15 00:49:12;;;;;;;6.53;3.87;;;10.80;97.80;;;;;;5055842;28;20419;-72
2022/02/15 00:51:38;;;;;;;4.93;3.93;;;10.80;97.60;;;;;;5053785;28;20431;-73
2022/02/15 00:54:04;;;;;;;5.80;3.80;;;10.80;97.60;;;;;;5055744;28;20411;-72
2022/02/15 00:56:30;;;;;;;7.30;4.17;;;10.80;97.60;;;;;;5055507;28;20256;-72
2022/02/15 00:58:56;;;;;;;4.13;3.67;;;10.80;97.50;;;;;;5053412;28;20572;-73
2022/02/15 01:01:22;;;;;;;4.77;4.30;;;10.80;97.60;;;;;;5054342;28;20894;-74
2022/02/15 01:03:48;;;;;;;6.57;5.33;;;10.80;97.70;;;;;;5054521;28;20411;-72
2022/02/15 01:06:14;;;;;;;6.60;4.70;;;10.80;97.70;;;;;;5055598;28;20411;-72
2022/02/15 01:08:42;;;;;;;4.87;4.10;;;10.80;97.80;;;;;;5054271;28;20423;-73
2022/02/15 01:11:09;;;;;;;6.33;4.50;;;10.90;97.80;;;;;;5055248;28;20969;-72
2022/02/15 01:13:36;;;;;;;5.77;4.10;;;10.90;97.90;;;;;;5055398;28;20403;-75
2022/02/15 01:16:01;;;;;;;5.93;4.40;;;10.90;97.80;;;;;;5055128;28;20411;-72
2022/02/15 01:18:28;;;;;;;6.43;5.17;;;10.90;97.80;;;;;;5053781;28;20993;-72
2022/02/15 01:20:54;;;;;;;8.00;4.97;;;10.90;97.80;;;;;;5052896;28;21061;-72
2022/02/15 01:23:21;;;;;;;5.30;3.80;;;10.90;98.00;;;;;;5055207;28;20430;-72
2022/02/15 01:25:47;;;;;;;4.80;4.07;;;10.80;98.10;;;;;;5054149;28;20412;-72
2022/02/15 01:28:13;;;;;;;4.83;4.00;;;10.80;98.20;;;;;;5055266;28;20420;-72
2022/02/15 01:30:39;;;;;;;4.63;3.90;;;10.80;98.20;;;;;;5054006;28;20423;-74
2022/02/15 01:33:05;;;;;;;4.23;3.83;;;10.80;98.20;;;;;;5055320;28;20417;-72
2022/02/15 01:35:31;;;;;;;4.50;3.63;;;10.80;98.40;;;;;;5053564;28;20537;-72
2022/02/15 01:37:56;;;;;;;4.67;3.80;;;10.80;98.40;;;;;;5053960;28;20181;-72
2022/02/15 01:40:22;;;;;;;5.70;4.10;;;10.80;98.70;;;;;;5054688;28;20314;-72
2022/02/15 01:42:48;;;;;;;7.47;4.40;;;10.80;98.40;;;;;;5053791;28;20260;-72
2022/02/15 01:45:17;;;;;;;4.67;4.20;;;10.90;98.40;;;;;;5053624;28;20415;-72
2022/02/15 01:47:45;;;;;;;5.23;4.50;;;10.80;98.30;;;;;;5053938;28;20500;-73
2022/02/15 01:50:12;;;;;;;4.37;3.97;;;11.00;98.40;;;;;;5054398;28;20451;-73
2022/02/15 01:52:38;;;;;;;6.77;4.93;;;10.80;98.30;;;;;;5052638;28;20778;-75
2022/02/15 01:55:07;;;;;;;5.37;4.57;;;10.80;98.30;;;;;;5053616;28;20968;-72
2022/02/15 01:57:33;;;;;;;8.10;4.73;;;10.90;98.20;;;;;;5054609;28;20415;-72
2022/02/15 02:00:00;;;;;;;5.40;4.90;;;10.80;98.10;;;;;;5053673;28;20612;-72
2022/02/15 02:02:27;;;;;;;6.23;4.63;;;10.80;98.70;;;;;;5054735;28;20419;-72
2022/02/15 02:07:39;;;;;;;5.20;4.30;;;10.80;98.60;;;;;;5053903;28;20443;-75
2022/02/15 02:10:05;;;;;;;5.30;4.40;;;10.90;98.50;;;;;;5053584;28;20426;-72
2022/02/15 02:12:31;;;;;;;6.10;4.83;;;10.80;98.50;;;;;;5052979;28;20917;-72
2022/02/15 02:15:03;;;;;;;6.83;5.27;;;10.70;98.60;;;;;;5053476;28;20475;-73
2022/02/15 02:17:29;;;;;;;6.03;4.97;;;10.70;98.80;;;;;;5053970;28;20414;-73
2022/02/15 02:19:56;;;;;;;5.47;4.70;;;10.70;98.80;;;;;;5052844;28;20479;-73
2022/02/15 02:22:24;;;;;;;9.83;7.40;;;10.70;98.90;;;;;;5053757;28;20237;-73
2022/02/15 02:24:51;;;;;;;5.53;5.00;;;10.80;98.90;;;;;;5053301;28;20775;-73
2022/02/15 02:27:22;;;;;;;6.30;4.80;;;10.80;98.80;;;;;;5053980;28;20424;-73
2022/02/15 02:29:50;;;;;;;8.00;5.20;;;10.80;98.80;;;;;;5053535;28;20484;-73
2022/02/15 02:32:18;;;;;;;7.27;5.50;;;10.80;98.70;;;;;;5054135;28;20729;-73
2022/02/15 02:34:44;;;;;;;7.97;6.17;;;10.70;98.90;;;;;;5053099;28;20416;-74
2022/02/15 02:37:13;;;;;;;7.37;5.73;;;10.70;99.10;;;;;;5053556;28;20405;-73
2022/02/15 02:39:41;;;;;;;7.67;5.10;;;10.80;99.00;;;;;;5053667;28;20502;-73
2022/02/15 02:42:07;;;;;;;7.03;4.90;;;10.70;98.90;;;;;;5053238;28;20478;-73
2022/02/15 02:44:32;;;;;;;6.13;5.07;;;10.80;98.90;;;;;;5052403;28;20907;-73
2022/02/15 02:46:58;;;;;;;7.27;5.83;;;10.90;98.90;;;;;;5052432;28;20185;-73
2022/02/15 02:49:24;;;;;;;6.40;5.77;;;10.80;99.10;;;;;;5053147;28;20536;-73
2022/02/15 02:51:49;;;;;;;7.03;5.50;;;10.70;98.80;;;;;;5052442;28;20177;-74
2022/02/15 02:54:15;;;;;;;6.80;5.70;;;10.80;99.00;;;;;;5053592;28;20551;-73
2022/02/15 02:56:41;;;;;;;7.63;5.73;;;10.80;99.10;;;;;;5053544;28;20176;-74
2022/02/15 02:59:06;;;;;;;11.03;5.83;;;10.80;99.10;;;;;;5053282;28;20230;-73
2022/02/15 03:01:32;;;;;;;5.70;5.10;;;10.70;99.30;;;;;;5052635;28;20258;-73
2022/02/15 03:03:58;;;;;;;9.40;6.30;;;10.80;99.20;;;;;;5051800;28;20177;-73
2022/02/15 03:06:25;;;;;;;7.93;6.00;;;10.80;99.20;;;;;;5052996;28;20912;-73
2022/02/15 03:08:51;;;;;;;7.47;5.63;;;10.80;99.20;;;;;;5051280;28;20180;-73
2022/02/15 03:11:17;;;;;;;6.40;5.80;;;10.70;99.40;;;;;;5053015;28;20420;-73
2022/02/15 03:13:42;;;;;;;8.13;5.90;;;10.80;99.40;;;;;;5052551;28;20257;-74
2022/02/15 03:16:08;;;;;;;7.63;6.93;;;10.70;99.20;;;;;;5052645;28;20633;-73
2022/02/15 03:18:34;;;;;;;7.80;6.40;;;10.70;99.30;;;;;;5052886;28;20187;-72
2022/02/15 03:21:00;;;;;;;9.77;7.40;;;10.70;99.30;;;;;;5051974;28;20967;-72
2022/02/15 03:23:25;;;;;;;9.83;6.57;;;10.70;99.40;;;;;;5051860;28;20184;-72
2022/02/15 03:25:51;;;;;;;7.60;6.10;;;10.70;99.40;;;;;;5052134;28;20621;-73
2022/02/15 03:28:17;;;;;;;6.90;6.07;;;10.70;99.60;;;;;;5052485;28;20222;-73
2022/02/15 03:30:42;;;;;;;10.67;7.00;;;10.70;99.60;;;;;;5052504;28;20185;-73
2022/02/15 03:33:08;;;;;;;7.77;6.83;;;10.70;99.60;;;;;;5052885;28;20215;-72
2022/02/15 03:35:34;;;;;;;9.57;6.97;;;10.60;99.80;;;;;;5053012;28;20254;-73
2022/02/15 03:38:00;;;;;;;8.57;6.93;;;10.60;99.80;;;;;;5051475;28;20189;-73
2022/02/15 03:43:04;;;;;;;7.03;6.40;;;10.60;99.90;;;;;;5052696;28;20220;-73
2022/02/15 03:43:14;;;;;;;8.80;7.87;;;10.60;99.80;;;;;;5052446;28;20809;-73
2022/02/15 03:45:40;;;;;;;10.10;7.67;;;10.70;99.90;;;;;;5051104;28;20420;-73
2022/02/15 03:48:06;;;;;;;8.00;7.20;;;10.70;99.70;;;;;;5050462;28;20480;-73
2022/02/15 03:50:32;;;;;;;9.57;7.97;;;10.60;99.60;;;;;;5051084;28;21004;-73
2022/02/15 03:52:58;;;;;;;7.97;7.27;;;10.60;99.60;;;;;;5051747;28;20405;-73
2022/02/15 03:55:24;;;;;;;8.30;7.50;;;10.60;99.80;;;;;;5052324;28;20178;-73
2022/02/15 03:57:50;;;;;;;8.77;7.83;;;10.60;99.90;;;;;;5051815;28;20183;-73
2022/02/15 04:00:16;;;;;;;11.53;8.53;;;10.50;99.90;;;;;;5052165;28;20215;-73
2022/02/15 04:02:41;;;;;;;8.93;8.03;;;10.50;99.90;;;;;;5051950;28;20258;-73
2022/02/15 04:05:08;;;;;;;10.60;9.23;;;10.60;99.90;;;;;;5051520;28;20521;-73
2022/02/15 04:07:33;;;;;;;9.97;9.03;;;10.60;99.90;;;;;;5051922;28;20186;-73
2022/02/15 04:09:59;;;;;;;13.87;8.77;;;10.50;99.90;;;;;;5051429;28;20415;-73
2022/02/15 04:12:25;;;;;;;10.10;9.20;;;10.50;99.90;;;;;;5052161;28;20204;-73
2022/02/15 04:14:51;;;;;;;9.40;8.27;;;10.50;99.90;;;;;;5051168;28;20168;-73
2022/02/15 04:17:16;;;;;;;10.70;9.60;;;10.50;99.90;;;;;;5052012;28;20174;-73
2022/02/15 04:19:42;;;;;;;14.13;10.27;;;10.50;99.90;;;;;;5067174;28;20242;-73
2022/02/15 04:22:09;;;;;;;13.20;9.97;;;10.50;99.90;;;;;;5051392;28;20255;-73
2022/02/15 04:24:34;;;;;;;11.70;10.40;;;10.40;99.90;;;;;;5052064;28;20173;-73
2022/02/15 04:27:00;;;;;;;12.80;11.00;;;10.40;99.90;;;;;;5050795;28;20447;-73
2022/02/15 04:29:28;;;;;;;13.03;11.67;;;10.40;99.90;;;;;;5052042;28;20325;-73
2022/02/15 04:31:54;;;;;;;13.87;11.13;;;10.40;99.90;;;;;;5051486;28;20183;-73
2022/02/15 04:34:19;;;;;;;15.10;10.97;;;10.40;99.90;;;;;;5052187;28;20730;-73
2022/02/15 04:36:45;;;;;;;14.10;12.00;;;10.40;99.90;;;;;;5052063;28;20471;-73
2022/02/15 04:39:14;;;;;;;12.63;10.80;;;10.40;99.90;;;;;;5049779;28;20638;-73
2022/02/15 04:41:40;;;;;;;13.40;11.63;;;10.40;99.90;;;;;;5051965;28;20247;-72
2022/02/15 04:44:07;;;;;;;14.23;12.70;;;10.40;99.90;;;;;;5051207;28;21296;-73
2022/02/15 04:46:33;;;;;;;14.40;12.77;;;10.40;99.90;;;;;;5051910;28;20889;-73
2022/02/15 04:49:01;;;;;;;14.90;12.57;;;10.40;99.90;;;;;;5051332;28;20461;-73
2022/02/15 04:51:27;;;;;;;18.10;12.57;;;10.40;99.90;;;;;;5051027;28;20514;-73
2022/02/15 04:53:53;;;;;;;17.10;12.30;;;10.30;99.90;;;;;;5050804;28;20577;-73
2022/02/15 04:56:19;;;;;;;15.10;13.60;;;10.30;99.90;;;;;;5051398;28;20191;-73
2022/02/15 04:58:44;;;;;;;13.70;12.30;;;10.30;99.90;;;;;;5051557;28;20187;-73
2022/02/15 05:01:14;;;;;;;15.33;12.37;;;10.40;99.90;;;;;;5049683;28;20211;-73
2022/02/15 05:03:40;;;;;;;14.10;12.30;;;10.30;99.90;;;;;;5051877;28;20539;-73
2022/02/15 05:06:06;;;;;;;16.83;12.57;;;10.30;99.90;;;;;;5050922;28;20505;-73
2022/02/15 05:08:32;;;;;;;13.90;12.40;;;10.30;99.90;;;;;;5051560;28;20517;-74
2022/02/15 05:10:58;;;;;;;15.43;11.57;;;10.30;99.90;;;;;;5050891;28;20257;-73
2022/02/15 05:13:23;;;;;;;15.20;13.57;;;10.30;99.90;;;;;;5051486;28;20182;-73
2022/02/15 05:15:49;;;;;;;14.00;12.50;;;10.30;99.90;;;;;;5051203;28;20174;-73
2022/02/15 05:18:15;;;;;;;16.13;12.13;;;10.30;99.90;;;;;;5051463;28;20217;-73
2022/02/15 05:20:41;;;;;;;16.17;12.47;;;10.30;99.90;;;;;;5051391;28;20475;-73
2022/02/15 05:23:07;;;;;;;15.43;12.30;;;10.30;99.90;;;;;;5050485;28;20784;-73
2022/02/15 05:25:33;;;;;;;17.97;12.93;;;10.30;99.90;;;;;;5051535;28;20175;-73
2022/02/15 05:27:59;;;;;;;17.40;13.97;;;10.30;99.90;;;;;;5052169;28;20416;-73
2022/02/15 05:30:26;;;;;;;15.40;13.03;;;10.30;99.90;;;;;;5054975;28;20930;-73
2022/02/15 05:32:52;;;;;;;15.63;13.03;;;10.40;99.90;;;;;;5054518;28;20495;-74
2022/02/15 05:35:19;;;;;;;20.73;13.33;;;10.40;99.90;;;;;;5054730;28;20450;-73
2022/02/15 05:37:45;;;;;;;17.27;13.27;;;10.40;99.90;;;;;;5054476;28;20784;-73
2022/02/15 05:40:12;;;;;;;19.47;13.80;;;10.40;99.90;;;;;;5053950;28;20453;-73
2022/02/15 05:42:39;;;;;;;16.63;13.20;;;10.40;99.90;;;;;;5054691;28;20469;-73
2022/02/15 05:45:05;;;;;;;15.93;13.87;;;10.30;99.90;;;;;;5053877;28;20431;-73
2022/02/15 05:47:31;;;;;;;15.63;13.80;;;10.30;99.90;;;;;;5054416;28;20431;-73
2022/02/15 05:52:41;;;;;;;18.30;13.90;;;10.30;99.90;;;;;;5053382;28;20174;-73
2022/02/15 05:55:07;;;;;;;18.60;12.30;;;10.30;99.90;;;;;;5052098;28;20429;-73
2022/02/15 05:57:33;;;;;;;12.70;10.60;;;10.30;99.90;;;;;;5054869;28;20226;-73
2022/02/15 05:59:59;;;;;;;13.13;11.07;;;10.30;99.90;;;;;;5053714;28;20468;-73
2022/02/15 06:02:25;;;;;;;12.57;10.67;;;10.20;99.90;;;;;;5054697;28;20427;-73
2022/02/15 06:04:52;;;;;;;11.70;9.90;;;10.20;99.90;;;;;;5054518;28;20776;-73
2022/02/15 06:07:18;;;;;;;14.80;10.80;;;10.20;99.90;;;;;;5053791;28;20504;-73
2022/02/15 06:09:44;;;;;;;15.37;11.30;;;10.20;99.90;;;;;;5053313;28;20766;-73
2022/02/15 06:12:10;;;;;;;12.27;10.30;;;10.30;99.90;;;;;;5053787;28;20420;-73
2022/02/15 06:14:36;;;;;;;13.23;10.60;;;10.30;99.90;;;;;;5054324;28;20212;-73
2022/02/15 06:17:01;;;;;;;12.90;9.73;;;10.40;99.90;;;;;;5051886;28;20989;-74
2022/02/15 06:19:27;;;;;;;13.57;11.10;;;10.30;99.90;;;;;;5052230;28;20268;-73
2022/02/15 06:21:53;;;;;;;13.57;9.90;;;10.20;99.90;;;;;;5052536;28;20270;-74
2022/02/15 06:24:20;;;;;;;11.17;10.00;;;10.20;99.90;;;;;;5053311;28;20185;-73
2022/02/15 06:26:46;;;;;;;14.53;10.30;;;10.30;99.90;;;;;;5036369;28;20191;-73
2022/02/15 06:29:12;;;;;;;14.47;11.67;;;10.30;99.90;;;;;;5053155;28;20413;-73
2022/02/15 06:31:38;;;;;;;11.13;9.93;;;10.30;99.90;;;;;;5052665;28;20479;-73
2022/02/15 06:34:07;;;;;;;13.90;10.77;;;10.30;99.90;;;;;;5052860;28;20493;-73
2022/02/15 06:36:33;;;;;;;15.30;10.33;;;10.40;99.90;;;;;;5053716;28;20414;-73
2022/02/15 06:39:00;;;;;;;12.83;10.03;;;10.40;99.90;;;;;;5052313;28;20546;-74
2022/02/15 06:41:26;;;;;;;12.40;9.73;;;10.40;99.90;;;;;;5052989;28;20697;-73
2022/02/15 06:43:52;;;;;;;10.93;9.73;;;10.50;99.90;;;;;;5053292;28;20431;-73
2022/02/15 06:46:18;;;;;;;12.20;9.47;;;10.50;99.90;;;;;;5052977;28;20193;-73
2022/02/15 06:48:44;;;;;;;13.30;8.93;;;10.40;99.90;;;;;;5060619;28;20778;-73
2022/02/15 06:51:10;;;;;;;17.10;10.30;;;10.50;99.90;;;;;;5053826;28;20446;-74
2022/02/15 06:53:36;;;;;;;13.60;9.90;;;10.50;99.90;;;;;;5050971;28;20173;-72
2022/02/15 06:56:02;;;;;;;11.77;10.37;;;10.40;99.90;;;;;;5052347;28;20413;-73
2022/02/15 06:58:28;;;;;;;12.27;11.07;;;10.40;99.90;;;;;;5053129;28;20264;-72
2022/02/15 07:00:54;;;;;;;13.13;10.90;;;10.40;99.90;;;;;;5051481;28;20680;-74
2022/02/15 07:03:20;;;;;;;14.00;10.80;;;10.40;99.90;;;;;;5053176;28;20448;-73
2022/02/15 07:05:45;;;;;;;12.97;11.40;;;10.40;99.90;;;;;;5053708;28;20541;-75
2022/02/15 07:08:11;;;;;;;14.50;11.30;;;10.40;99.90;;;;;;5052434;28;20305;-75
2022/02/15 07:10:37;;;;;;;14.50;11.33;;;10.40;99.90;;;;;;5052322;28;20601;-72
2022/02/15 07:13:03;;;;;;;11.63;10.10;;;10.30;99.90;;;;;;5050690;28;20188;-72
2022/02/15 07:15:29;;;;;;;12.83;10.80;;;10.30;99.90;;;;;;5051528;28;20191;-72
2022/02/15 07:17:57;;;;;;;13.83;10.40;;;10.30;99.90;;;;;;5052505;28;20918;-73
2022/02/15 07:20:23;;;;;;;15.17;12.13;;;10.30;99.90;;;;;;5052692;28;20487;-73
2022/02/15 07:22:48;;;;;;;15.53;10.73;;;10.30;99.90;;;;;;5052359;28;20852;-73
2022/02/15 07:25:14;;;;;;;13.63;10.60;;;10.20;99.90;;;;;;5051182;28;20188;-72
2022/02/15 07:27:40;;;;;;;13.30;11.90;;;10.20;99.90;;;;;;5052556;28;20192;-72
2022/02/15 07:30:07;;;;;;;14.00;11.33;;;10.20;99.90;;;;;;5052508;28;20446;-73
2022/02/15 07:32:33;;;;;;;12.90;10.93;;;10.20;99.90;;;;;;5051811;28;20254;-73
2022/02/15 07:34:59;;;;;;;16.33;11.60;;;10.20;99.90;;;;;;5052735;28;20423;-73
2022/02/15 07:37:26;;;;;;;15.23;11.00;;;10.20;99.90;;;;;;5063642;28;20423;-72
2022/02/15 07:39:52;;;;;;;13.43;11.30;;;10.20;99.90;;;;;;5052665;28;20765;-72
2022/02/15 07:42:19;;;;;;;15.43;11.77;;;10.20;99.90;;;;;;5063030;28;20410;-72
2022/02/15 07:44:45;;;;;;;13.50;10.70;;;10.10;99.90;;;;;;5052434;28;20409;-72
2022/02/15 07:47:11;;;;;;;12.10;10.83;;;10.20;99.90;;;;;;5052195;28;20938;-73
2022/02/15 07:49:37;;;;;;;11.07;9.80;;;10.10;99.90;;;;;;5052406;28;20549;-72
2022/02/15 07:52:03;;;;;;;10.90;9.80;;;10.20;99.90;;;;;;5051218;28;20517;-73
2022/02/15 07:54:29;;;;;;;11.30;10.10;;;10.10;99.90;;;;;;5050879;28;20513;-72
2022/02/15 07:56:55;;;;;;;11.07;9.50;;;10.10;99.90;;;;;;5052231;28;20434;-72
2022/02/15 07:59:21;;;;;;;12.73;11.17;;;10.10;99.90;;;;;;5051902;28;20519;-72
2022/02/15 08:01:47;;;;;;;12.20;9.63;;;10.10;99.90;;;;;;5052286;28;20213;-72
2022/02/15 08:04:15;;;;;;;12.73;10.50;;;10.00;99.90;;;;;;5052056;28;20424;-72
2022/02/15 08:06:41;;;;;;;12.97;11.53;;;10.10;99.90;;;;;;5051894;28;20439;-72
2022/02/15 08:09:14;;;;;;;13.90;10.80;;;10.10;99.90;;;;;;5051666;28;20520;-72
2022/02/15 08:11:44;;;;;;;13.47;11.00;;;10.10;99.90;;;;;;5052233;28;20522;-72
2022/02/15 08:14:13;;;;;;;12.98;10.65;;;10.00;99.90;;;;;;5051788;28;20404;-76
2022/02/15 08:16:39;;;;;;;14.17;12.07;;;10.00;99.90;;;;;;5051534;28;20180;-76
2022/02/15 08:19:04;;;;;;;13.03;11.80;;;10.20;99.90;;;;;;5051745;28;20458;-77
2022/02/15 08:21:30;;;;;;;12.87;11.53;;;10.50;99.90;;;;;;5052080;28;20221;-77
2022/02/15 08:23:56;;;;;;;13.23;11.00;;;10.80;99.90;;;;;;5052428;28;20225;-76
2022/02/15 08:26:24;;;;;;;14.63;11.67;;;11.00;99.90;;;;;;5051577;28;20486;-76
2022/02/15 08:28:50;;;;;;;13.00;11.10;;;11.30;99.90;;;;;;5052604;28;20175;-76
2022/02/15 08:31:15;;;;;;;14.60;11.93;;;11.50;99.90;;;;;;5051798;28;20888;-76
2022/02/15 08:33:41;;;;;;;15.40;12.67;;;11.70;99.90;;;;;;5051939;28;20416;-76
2022/02/15 08:36:07;;;;;;;13.40;11.70;;;11.80;99.80;;;;;;5051728;28;20250;-76
2022/02/15 08:38:33;;;;;;;14.50;11.50;;;11.90;99.70;;;;;;5052348;28;20195;-76
2022/02/15 08:41:03;;;;;;;17.70;12.60;;;12.10;99.10;;;;;;5051559;28;20205;-77
2022/02/15 08:43:29;;;;;;;12.90;11.47;;;12.10;98.60;;;;;;5052202;28;20765;-76
2022/02/15 08:45:55;;;;;;;14.23;11.90;;;12.20;98.40;;;;;;5052173;28;20510;-76
2022/02/15 08:48:21;;;;;;;14.30;12.37;;;12.30;97.80;;;;;;5051692;28;20997;-76
2022/02/15 08:50:47;;;;;;;13.47;10.47;;;12.40;98.60;;;;;;5052204;28;20753;-76
2022/02/15 08:53:13;;;;;;;12.40;10.50;;;12.40;98.00;;;;;;5051631;28;20417;-76
2022/02/15 08:55:39;;;;;;;12.43;11.13;;;12.30;97.10;;;;;;5052020;28;20177;-76
2022/02/15 08:58:05;;;;;;;12.57;11.27;;;12.40;98.50;;;;;;5051202;28;20174;-76
2022/02/15 09:00:31;;;;;;;12.37;11.07;;;12.50;98.20;;;;;;5051862;28;20861;-72
2022/02/15 09:02:56;;;;;;;11.80;10.60;;;12.50;97.40;;;;;;5052985;28;20419;-72
2022/02/15 09:05:23;;;;;;;12.07;10.87;;;12.40;96.60;;;;;;5053022;28;21051;-73
2022/02/15 09:07:51;;;;;;;14.73;10.83;;;12.20;96.60;;;;;;5054014;28;20183;-72
2022/02/15 09:10:17;;;;;;;13.90;11.30;;;12.00;96.80;;;;;;5055151;28;20447;-72
2022/02/15 09:12:43;;;;;;;12.70;11.40;;;11.80;97.50;;;;;;5053266;28;20448;-72
2022/02/15 09:15:12;;;;;;;13.00;11.27;;;11.60;97.70;;;;;;5054832;28;20238;-72
2022/02/15 09:17:42;;;;;;;14.13;12.10;;;11.50;98.30;;;;;;5054830;28;20920;-72
2022/02/15 09:20:13;;;;;;;13.33;11.63;;;11.30;98.60;;;;;;5054233;28;20470;-73
2022/02/15 09:22:40;;;;;;;13.30;11.80;;;11.10;98.80;;;;;;5054999;28;20868;-72
2022/02/15 09:25:07;;;;;;;16.30;12.27;;;11.00;99.30;;;;;;5054526;28;20770;-72
2022/02/15 09:27:32;;;;;;;15.33;12.23;;;10.90;99.60;;;;;;5055166;28;20497;-72
2022/02/15 09:29:58;;;;;;;14.93;10.87;;;10.90;99.90;;;;;;5055284;28;20407;-72
2022/02/15 09:32:24;;;;;;;13.80;11.30;;;10.80;99.90;;;;;;5054131;28;20174;-72
2022/02/15 09:34:50;;;;;;;14.50;11.77;;;10.80;99.90;;;;;;5055419;28;20189;-72
2022/02/15 09:37:16;;;;;;;13.90;10.67;;;10.70;99.80;;;;;;5054366;28;20404;-72
2022/02/15 09:39:42;;;;;;;14.97;11.97;;;10.70;99.90;;;;;;5055323;28;20178;-72
2022/02/15 09:42:09;;;;;;;13.07;11.60;;;10.70;99.90;;;;;;5054502;28;20215;-73
2022/02/15 09:44:34;;;;;;;12.33;9.90;;;10.70;99.90;;;;;;5055402;28;20410;-72
2022/02/15 09:47:00;;;;;;;13.63;11.40;;;10.60;99.90;;;;;;5054975;28;20423;-72
2022/02/15 09:52:13;;;;;;;13.30;10.40;;;10.60;99.90;;;;;;5054307;28;20772;-72
2022/02/15 09:54:42;;;;;;;12.10;10.90;;;10.60;99.90;;;;;;5053569;28;20926;-72
2022/02/15 09:57:09;;;;;;;17.73;11.90;;;10.70;99.90;;;;;;5054060;28;20422;-72
2022/02/15 09:59:35;;;;;;;12.90;10.67;;;10.50;99.90;;;;;;5054867;28;20447;-72
2022/02/15 10:02:12;;;;;;;12.23;9.50;;;10.50;99.90;;;;;;5053168;28;20457;-72
2022/02/15 10:04:44;;;;;;;13.43;11.50;;;10.50;99.90;;;;;;5054908;28;20413;-72
2022/02/15 10:07:12;;;;;;;15.97;12.63;;;10.40;99.90;;;;;;5054638;28;20395;-72
2022/02/15 10:09:38;;;;;;;13.03;10.83;;;10.30;99.90;;;;;;5054827;28;20418;-72
2022/02/15 10:12:09;;;;;;;16.93;11.40;;;10.30;99.90;;;;;;5054827;28;20428;-72
2022/02/15 10:14:41;;;;;;;15.30;12.47;;;10.10;99.90;;;;;;5054040;28;20841;-72
2022/02/15 10:17:15;;;;;;;13.43;11.70;;;10.00;99.90;;;;;;5054428;28;20497;-74
2022/02/15 10:19:42;;;;;;;14.80;11.53;;;10.10;99.90;;;;;;5054249;28;20518;-72
2022/02/15 10:22:08;;;;;;;16.57;11.33;;;10.10;99.90;;;;;;5053959;28;20479;-72
2022/02/15 10:24:37;;;;;;;13.53;11.47;;;10.00;99.90;;;;;;5054393;28;20908;-72
2022/02/15 10:27:10;;;;;;;14.43;12.20;;;10.00;99.90;;;;;;5054498;28;20765;-72
2022/02/15 10:29:37;;;;;;;12.87;10.93;;;10.00;99.90;;;;;;5054469;28;20412;-72
2022/02/15 10:32:06;;;;;;;13.23;11.50;;;10.00;99.90;;;;;;5054381;28;20441;-72
2022/02/15 10:34:32;;;;;;;15.70;12.30;;;10.00;99.90;;;;;;5054542;28;20410;-72
2022/02/15 10:37:06;;;;;;;12.53;11.23;;;10.00;99.90;;;;;;5054273;28;20432;-72
2022/02/15 10:39:47;;;;;;;14.43;11.57;;;10.10;99.90;;;;;;5053972;28;20406;-72
2022/02/15 10:42:15;;;;;;;14.00;11.00;;;10.10;99.90;;;;;;5053362;28;20766;-72
2022/02/15 10:44:54;;;;;;;14.60;12.27;;;10.10;99.90;;;;;;5054200;28;20415;-72
2022/02/15 10:47:23;;;;;;;12.47;10.60;;;10.10;99.90;;;;;;5053472;28;20412;-72
2022/02/15 10:49:49;;;;;;;11.13;9.93;;;10.10;99.90;;;;;;5054025;28;20419;-72
2022/02/15 10:52:15;;;;;;;11.63;10.53;;;10.10;99.90;;;;;;5053663;28;20416;-72
2022/02/15 10:54:41;;;;;;;12.37;10.47;;;10.20;99.90;;;;;;5054019;28;20206;-72
2022/02/15 10:57:14;;;;;;;12.83;11.07;;;10.10;99.90;;;;;;5053673;28;20408;-72
2022/02/15 10:59:42;;;;;;;11.63;10.33;;;10.10;99.90;;;;;;5053909;28;20407;-72
2022/02/15 11:02:26;;;;;;;15.33;11.10;;;10.00;99.90;;;;;;5052448;28;20485;-72
2022/02/15 11:04:57;;;;;;;12.60;10.27;;;10.00;99.90;;;;;;5054095;28;20398;-72
2022/02/15 11:07:27;;;;;;;12.43;10.20;;;10.10;99.90;;;;;;5053032;28;20413;-72
2022/02/15 11:10:13;;;;;;;11.50;10.30;;;10.00;99.90;;;;;;5052521;28;20419;-72
2022/02/15 11:12:50;;;;;;;11.50;10.33;;;10.00;99.90;;;;;;5053691;28;20489;-72
2022/02/15 11:15:33;;;;;;;11.50;9.83;;;10.10;99.90;;;;;;5053171;28;20417;-72
2022/02/15 11:18:07;;;;;;;16.40;10.03;;;10.10;99.90;;;;;;5053303;28;20882;-72
2022/02/15 11:20:51;;;;;;;15.30;10.60;;;10.10;99.90;;;;;;5052336;28;20579;-72
2022/02/15 11:23:19;;;;;;;13.33;9.13;;;10.10;99.90;;;;;;5052900;28;20420;-73
2022/02/15 11:25:45;;;;;;;10.33;9.33;;;10.10;99.90;;;;;;5052637;28;20410;-72
2022/02/15 11:28:16;;;;;;;14.73;10.97;;;10.10;99.90;;;;;;5052739;28;20756;-74
2022/02/15 11:31:02;;;;;;;14.00;9.30;;;10.10;99.90;;;;;;5053210;28;20424;-72
2022/02/15 11:33:37;;;;;;;9.50;8.50;;;10.10;99.90;;;;;;5052587;28;20396;-72
2022/02/15 11:36:08;;;;;;;13.70;9.30;;;10.10;99.90;;;;;;5053248;28;20393;-72
2022/02/15 11:38:37;;;;;;;11.57;9.70;;;10.00;99.90;;;;;;5052546;28;20436;-72
2022/02/15 11:41:04;;;;;;;12.10;9.17;;;10.00;99.90;;;;;;5051767;28;20491;-72
2022/02/15 11:43:31;;;;;;;11.73;8.30;;;9.90;99.90;;;;;;5052463;28;20749;-72
2022/02/15 11:45:58;;;;;;;8.50;7.70;;;9.90;99.90;;;;;;5052865;28;20916;-72
2022/02/15 11:48:36;;;;;;;10.93;8.47;;;10.00;99.90;;;;;;5051804;28;20895;-72
2022/02/15 11:51:03;;;;;;;9.47;8.30;;;10.00;99.90;;;;;;5052530;28;20512;-72
2022/02/15 11:53:29;;;;;;;15.27;8.00;;;10.10;99.90;;;;;;5052305;28;20409;-72
2022/02/15 11:55:56;;;;;;;9.13;8.10;;;10.10;99.90;;;;;;5052873;28;20413;-72
2022/02/15 11:58:22;;;;;;;11.83;9.10;;;10.20;99.90;;;;;;5052275;28;20512;-72
2022/02/15 12:00:48;;;;;;;10.13;8.67;;;10.40;99.90;;;;;;5052321;28;20830;-72
2022/02/15 12:03:16;;;;;;;14.10;9.37;;;10.50;99.90;;;;;;5051910;28;20256;-73
2022/02/15 12:05:44;;;;;;;9.57;8.30;;;10.50;98.90;;;;;;5052726;28;20475;-72
2022/02/15 12:08:20;;;;;;;10.17;9.17;;;10.60;99.50;;;;;;5052635;28;20411;-72
2022/02/15 12:10:46;;;;;;;11.17;8.57;;;10.80;99.20;;;;;;5052830;28;20882;-72
2022/02/15 12:13:17;;;;;;;10.43;9.43;;;10.90;98.70;;;;;;5052904;28;20407;-72
2022/02/15 12:15:47;;;;;;;8.47;7.67;;;11.00;98.60;;;;;;5052713;28;20269;-72
2022/02/15 12:18:13;;;;;;;10.10;8.20;;;11.00;97.50;;;;;;5052204;28;20416;-74
2022/02/15 12:20:41;;;;;;;11.33;9.60;;;11.10;98.20;;;;;;5052299;28;20480;-72
2022/02/15 12:23:07;;;;;;;8.80;8.10;;;11.20;97.80;;;;;;5052527;28;20424;-72
2022/02/15 12:25:46;;;;;;;11.60;10.50;;;11.20;96.50;;;;;;5052117;28;20433;-72
2022/02/15 12:28:13;;;;;;;9.40;8.60;;;11.20;96.70;;;;;;5052579;28;20403;-72
2022/02/15 12:30:45;;;;;;;9.23;8.20;;;11.10;96.00;;;;;;5052089;28;20423;-72
2022/02/15 12:33:11;;;;;;;8.47;7.70;;;11.10;95.70;;;;;;5052439;28;20406;-72
2022/02/15 12:35:37;;;;;;;8.50;7.60;;;11.10;95.50;;;;;;5051553;28;21069;-72
2022/02/15 12:38:04;;;;;;;7.47;6.87;;;10.90;95.60;;;;;;5055695;28;20495;-72
2022/02/15 12:40:30;;;;;;;8.40;6.70;;;10.80;95.70;;;;;;5055755;28;20264;-72
2022/02/15 12:42:55;;;;;;;6.63;6.10;;;10.70;95.90;;;;;;5056700;28;20427;-72